sensor_id;sensor_type;location;lat;lon;timestamp;pressure;altitude;pressure_sealevel;temperature;humidity
55418;BME280;41287;47.554;7.844;2023-03-04T00:01:02;98474.94;;;15.94;56.81
55418;BME280;41287;47.554;7.844;2023-03-04T00:03:29;98483.84;;;15.94;56.71
55418;BME280;41287;47.554;7.844;2023-03-04T00:05:55;98480.84;;;15.96;56.74
55418;BME280;41287;47.554;7.844;2023-03-04T00:08:20;98488.97;;;15.96;56.69
55418;BME280;41287;47.554;7.844;2023-03-04T00:10:46;98487.81;;;15.97;56.86
55418;BME280;41287;47.554;7.844;2023-03-04T00:13:11;98485.94;;;15.97;56.83
55418;BME280;41287;47.554;7.844;2023-03-04T00:15:36;98492.13;;;15.98;56.85
55418;BME280;41287;47.554;7.844;2023-03-04T00:18:02;98494.53;;;15.99;56.79
55418;BME280;41287;47.554;7.844;2023-03-04T00:20:27;98498.03;;;16.00;56.84
55418;BME280;41287;47.554;7.844;2023-03-04T00:22:55;98493.44;;;16.00;56.78
55418;BME280;41287;47.554;7.844;2023-03-04T00:25:20;98503.16;;;16.01;56.97
55418;BME280;41287;47.554;7.844;2023-03-04T00:27:45;98497.75;;;16.01;56.93
55418;BME280;41287;47.554;7.844;2023-03-04T00:30:13;98496.63;;;16.02;56.91
55418;BME280;41287;47.554;7.844;2023-03-04T00:32:40;98503.66;;;16.03;56.90
55418;BME280;41287;47.554;7.844;2023-03-04T00:35:06;98500.16;;;16.03;56.81
55418;BME280;41287;47.554;7.844;2023-03-04T00:37:33;98502.53;;;16.04;56.83
55418;BME280;41287;47.554;7.844;2023-03-04T00:40:00;98501.41;;;16.05;56.86
55418;BME280;41287;47.554;7.844;2023-03-04T00:42:26;98491.41;;;16.06;56.79
55418;BME280;41287;47.554;7.844;2023-03-04T00:44:51;98494.91;;;16.06;56.88
55418;BME280;41287;47.554;7.844;2023-03-04T00:47:18;98496.50;;;16.07;56.90
55418;BME280;41287;47.554;7.844;2023-03-04T00:49:45;98498.13;;;16.08;56.86
55418;BME280;41287;47.554;7.844;2023-03-04T00:52:10;98486.50;;;16.08;56.94
55418;BME280;41287;47.554;7.844;2023-03-04T00:54:36;98492.41;;;16.10;56.78
55418;BME280;41287;47.554;7.844;2023-03-04T00:57:03;98493.97;;;16.11;56.84
55418;BME280;41287;47.554;7.844;2023-03-04T00:59:28;98494.78;;;16.11;56.89
55418;BME280;41287;47.554;7.844;2023-03-04T01:01:53;98498.28;;;16.12;56.83
55418;BME280;41287;47.554;7.844;2023-03-04T01:04:19;98501.00;;;16.12;56.94
55418;BME280;41287;47.554;7.844;2023-03-04T01:06:44;98496.38;;;16.12;56.97
55418;BME280;41287;47.554;7.844;2023-03-04T01:09:10;98495.28;;;16.13;56.87
55418;BME280;41287;47.554;7.844;2023-03-04T01:11:35;98486.38;;;16.13;56.97
55418;BME280;41287;47.554;7.844;2023-03-04T01:14:02;98490.69;;;16.14;56.91
55418;BME280;41287;47.554;7.844;2023-03-04T01:16:28;98489.56;;;16.15;56.98
55418;BME280;41287;47.554;7.844;2023-03-04T01:18:53;98491.19;;;16.16;56.91
55418;BME280;41287;47.554;7.844;2023-03-04T01:21:19;98488.47;;;16.16;57.00
55418;BME280;41287;47.554;7.844;2023-03-04T01:23:44;98488.47;;;16.16;56.86
55418;BME280;41287;47.554;7.844;2023-03-04T01:26:10;98491.97;;;16.16;56.80
55418;BME280;41287;47.554;7.844;2023-03-04T01:28:35;98485.44;;;16.17;56.91
55418;BME280;41287;47.554;7.844;2023-03-04T01:31:03;98482.75;;;16.17;56.92
55418;BME280;41287;47.554;7.844;2023-03-04T01:33:29;98470.81;;;16.18;56.91
55418;BME280;41287;47.554;7.844;2023-03-04T01:35:58;98469.72;;;16.19;57.04
55418;BME280;41287;47.554;7.844;2023-03-04T01:38:26;98472.44;;;16.19;56.99
55418;BME280;41287;47.554;7.844;2023-03-04T01:40:52;98468.63;;;16.20;56.88
55418;BME280;41287;47.554;7.844;2023-03-04T01:43:22;98472.94;;;16.22;56.90
55418;BME280;41287;47.554;7.844;2023-03-04T01:45:49;98472.63;;;16.23;57.16
55418;BME280;41287;47.554;7.844;2023-03-04T01:48:18;98478.03;;;16.23;57.18
55418;BME280;41287;47.554;7.844;2023-03-04T01:50:44;98468.00;;;16.24;57.07
55418;BME280;41287;47.554;7.844;2023-03-04T01:53:18;98465.63;;;16.22;57.04
55418;BME280;41287;47.554;7.844;2023-03-04T01:55:44;98468.00;;;16.24;57.06
55418;BME280;41287;47.554;7.844;2023-03-04T01:58:12;98466.88;;;16.25;57.11
55418;BME280;41287;47.554;7.844;2023-03-04T02:03:16;98461.19;;;16.26;57.01
55418;BME280;41287;47.554;7.844;2023-03-04T02:05:48;98455.78;;;16.26;57.00
55418;BME280;41287;47.554;7.844;2023-03-04T02:08:15;98460.88;;;16.28;57.07
55418;BME280;41287;47.554;7.844;2023-03-04T02:10:43;98457.38;;;16.27;57.13
55418;BME280;41287;47.554;7.844;2023-03-04T02:13:08;98455.47;;;16.28;56.99
55418;BME280;41287;47.554;7.844;2023-03-04T02:15:34;98449.75;;;16.29;57.15
55418;BME280;41287;47.554;7.844;2023-03-04T02:18:00;98449.75;;;16.29;56.98
55418;BME280;41287;47.554;7.844;2023-03-04T02:23:21;98452.16;;;16.31;56.98
55418;BME280;41287;47.554;7.844;2023-03-04T02:26:11;98456.44;;;16.32;57.23
55418;BME280;41287;47.554;7.844;2023-03-04T02:28:37;98450.22;;;16.31;57.05
55418;BME280;41287;47.554;7.844;2023-03-04T02:31:02;98451.03;;;16.32;57.08
55418;BME280;41287;47.554;7.844;2023-03-04T02:33:28;98441.81;;;16.33;57.03
55418;BME280;41287;47.554;7.844;2023-03-04T02:35:53;98445.31;;;16.33;57.06
55418;BME280;41287;47.554;7.844;2023-03-04T02:38:18;98452.31;;;16.34;56.93
55418;BME280;41287;47.554;7.844;2023-03-04T02:40:47;98456.13;;;16.33;57.08
55418;BME280;41287;47.554;7.844;2023-03-04T02:43:14;98453.94;;;16.35;57.15
55418;BME280;41287;47.554;7.844;2023-03-04T02:45:46;98447.72;;;16.35;57.12
55418;BME280;41287;47.554;7.844;2023-03-04T02:48:11;98452.03;;;16.36;57.08
55418;BME280;41287;47.554;7.844;2023-03-04T02:50:44;98456.63;;;16.35;57.05
55418;BME280;41287;47.554;7.844;2023-03-04T02:53:10;98454.41;;;16.37;57.15
55418;BME280;41287;47.554;7.844;2023-03-04T02:55:38;98448.22;;;16.37;57.05
55418;BME280;41287;47.554;7.844;2023-03-04T02:58:04;98449.78;;;16.38;57.11
55418;BME280;41287;47.554;7.844;2023-03-04T03:00:29;98456.00;;;16.38;57.02
55418;BME280;41287;47.554;7.844;2023-03-04T03:02:55;98450.59;;;16.38;57.07
55418;BME280;41287;47.554;7.844;2023-03-04T03:05:25;98445.97;;;16.39;57.05
55418;BME280;41287;47.554;7.844;2023-03-04T03:07:51;98442.47;;;16.38;57.02
55418;BME280;41287;47.554;7.844;2023-03-04T03:10:16;98447.56;;;16.40;57.19
55418;BME280;41287;47.554;7.844;2023-03-04T03:12:42;98444.88;;;16.40;57.18
55418;BME280;41287;47.554;7.844;2023-03-04T03:15:07;98442.97;;;16.40;57.18
55418;BME280;41287;47.554;7.844;2023-03-04T03:17:33;98435.66;;;16.41;57.19
55418;BME280;41287;47.554;7.844;2023-03-04T03:19:58;98438.34;;;16.41;57.16
55418;BME280;41287;47.554;7.844;2023-03-04T03:22:24;98431.84;;;16.42;57.09
55418;BME280;41287;47.554;7.844;2023-03-04T03:24:49;98438.34;;;16.41;57.07
55418;BME280;41287;47.554;7.844;2023-03-04T03:27:15;98441.56;;;16.43;57.15
55418;BME280;41287;47.554;7.844;2023-03-04T03:29:40;98439.66;;;16.43;57.00
55418;BME280;41287;47.554;7.844;2023-03-04T03:32:05;98440.47;;;16.44;57.22
55418;BME280;41287;47.554;7.844;2023-03-04T03:34:31;98443.16;;;16.44;57.18
55418;BME280;41287;47.554;7.844;2023-03-04T03:36:56;98443.16;;;16.44;57.18
55418;BME280;41287;47.554;7.844;2023-03-04T03:39:22;98445.88;;;16.44;57.16
55418;BME280;41287;47.554;7.844;2023-03-04T03:41:47;98440.47;;;16.44;57.15
55418;BME280;41287;47.554;7.844;2023-03-04T03:44:13;98446.66;;;16.44;57.02
55418;BME280;41287;47.554;7.844;2023-03-04T03:46:38;98448.25;;;16.45;57.15
55418;BME280;41287;47.554;7.844;2023-03-04T03:49:03;98449.84;;;16.46;57.14
55418;BME280;41287;47.554;7.844;2023-03-04T03:51:29;98447.13;;;16.46;57.02
55418;BME280;41287;47.554;7.844;2023-03-04T03:53:54;98447.94;;;16.47;57.12
55418;BME280;41287;47.554;7.844;2023-03-04T03:56:19;98442.53;;;16.47;57.02
55418;BME280;41287;47.554;7.844;2023-03-04T03:58:46;98450.63;;;16.47;57.10
55418;BME280;41287;47.554;7.844;2023-03-04T04:01:13;98449.53;;;16.48;57.09
55418;BME280;41287;47.554;7.844;2023-03-04T04:03:39;98451.44;;;16.47;57.06
55418;BME280;41287;47.554;7.844;2023-03-04T04:06:04;98453.03;;;16.48;57.13
55418;BME280;41287;47.554;7.844;2023-03-04T04:08:30;98453.03;;;16.48;57.13
55418;BME280;41287;47.554;7.844;2023-03-04T04:10:55;98453.84;;;16.49;57.17
55418;BME280;41287;47.554;7.844;2023-03-04T04:13:21;98450.34;;;16.48;56.96
55418;BME280;41287;47.554;7.844;2023-03-04T04:15:46;98451.13;;;16.49;57.16
55418;BME280;41287;47.554;7.844;2023-03-04T04:18:11;98452.75;;;16.50;57.04
55418;BME280;41287;47.554;7.844;2023-03-04T04:20:37;98456.53;;;16.49;57.01
55418;BME280;41287;47.554;7.844;2023-03-04T04:23:02;98453.53;;;16.50;57.02
55418;BME280;41287;47.554;7.844;2023-03-04T04:25:29;98455.44;;;16.50;57.05
55418;BME280;41287;47.554;7.844;2023-03-04T04:27:58;98458.94;;;16.50;56.93
55418;BME280;41287;47.554;7.844;2023-03-04T04:30:24;98459.75;;;16.51;57.17
55418;BME280;41287;47.554;7.844;2023-03-04T04:32:49;98460.53;;;16.51;57.16
55418;BME280;41287;47.554;7.844;2023-03-04T04:35:15;98454.34;;;16.51;57.13
55418;BME280;41287;47.554;7.844;2023-03-04T04:37:40;98456.25;;;16.50;57.07
55418;BME280;41287;47.554;7.844;2023-03-04T04:40:06;98458.63;;;16.52;57.06
55418;BME280;41287;47.554;7.844;2023-03-04T04:42:32;98464.03;;;16.52;57.06
55418;BME280;41287;47.554;7.844;2023-03-04T04:44:59;98464.81;;;16.52;57.07
55418;BME280;41287;47.554;7.844;2023-03-04T04:47:24;98458.63;;;16.52;56.91
55418;BME280;41287;47.554;7.844;2023-03-04T04:49:50;98467.53;;;16.52;57.04
55418;BME280;41287;47.554;7.844;2023-03-04T04:52:15;98462.13;;;16.52;57.15
55418;BME280;41287;47.554;7.844;2023-03-04T04:54:41;98463.72;;;16.53;56.97
55418;BME280;41287;47.554;7.844;2023-03-04T04:57:08;98464.53;;;16.54;57.13
55418;BME280;41287;47.554;7.844;2023-03-04T04:59:36;98464.53;;;16.54;57.01
55418;BME280;41287;47.554;7.844;2023-03-04T05:02:01;98466.44;;;16.53;57.07
55418;BME280;41287;47.554;7.844;2023-03-04T05:04:27;98468.81;;;16.55;57.03
55418;BME280;41287;47.554;7.844;2023-03-04T05:06:52;98467.22;;;16.54;57.14
55418;BME280;41287;47.554;7.844;2023-03-04T05:09:17;98469.63;;;16.55;56.99
55418;BME280;41287;47.554;7.844;2023-03-04T05:11:44;98471.53;;;16.55;56.97
55418;BME280;41287;47.554;7.844;2023-03-04T05:14:10;98466.13;;;16.55;57.19
55418;BME280;41287;47.554;7.844;2023-03-04T05:16:35;98469.63;;;16.55;57.09
55418;BME280;41287;47.554;7.844;2023-03-04T05:19:00;98464.22;;;16.55;57.06
55418;BME280;41287;47.554;7.844;2023-03-04T05:21:26;98459.91;;;16.54;57.03
55418;BME280;41287;47.554;7.844;2023-03-04T05:23:51;98466.91;;;16.55;56.94
55418;BME280;41287;47.554;7.844;2023-03-04T05:26:17;98466.91;;;16.55;57.12
55418;BME280;41287;47.554;7.844;2023-03-04T05:28:43;98467.72;;;16.56;57.14
55418;BME280;41287;47.554;7.844;2023-03-04T05:31:09;98465.81;;;16.56;57.01
55418;BME280;41287;47.554;7.844;2023-03-04T05:33:35;98466.91;;;16.55;57.06
55418;BME280;41287;47.554;7.844;2023-03-04T05:36:01;98466.91;;;16.55;57.15
55418;BME280;41287;47.554;7.844;2023-03-04T05:38:26;98462.00;;;16.57;57.13
55418;BME280;41287;47.554;7.844;2023-03-04T05:41:03;98468.53;;;16.56;57.09
55418;BME280;41287;47.554;7.844;2023-03-04T05:43:28;98475.53;;;16.57;57.05
55418;BME280;41287;47.554;7.844;2023-03-04T05:45:54;98472.03;;;16.57;57.12
55418;BME280;41287;47.554;7.844;2023-03-04T05:48:20;98472.81;;;16.57;57.10
55418;BME280;41287;47.554;7.844;2023-03-04T05:50:45;98470.13;;;16.57;57.03
55418;BME280;41287;47.554;7.844;2023-03-04T05:53:11;98473.28;;;16.59;57.11
55418;BME280;41287;47.554;7.844;2023-03-04T05:55:36;98475.53;;;16.57;57.10
55418;BME280;41287;47.554;7.844;2023-03-04T05:58:02;98477.09;;;16.58;57.19
55418;BME280;41287;47.554;7.844;2023-03-04T06:00:27;98471.69;;;16.58;57.11
55418;BME280;41287;47.554;7.844;2023-03-04T06:02:52;98470.94;;;16.58;57.00
55418;BME280;41287;47.554;7.844;2023-03-04T06:05:18;98477.09;;;16.58;57.19
55418;BME280;41287;47.554;7.844;2023-03-04T06:07:44;98479.81;;;16.58;57.09
55418;BME280;41287;47.554;7.844;2023-03-04T06:10:13;98484.13;;;16.59;57.01
55418;BME280;41287;47.554;7.844;2023-03-04T06:12:38;98490.38;;;16.60;57.16
55418;BME280;41287;47.554;7.844;2023-03-04T06:15:04;98498.47;;;16.60;57.02
55418;BME280;41287;47.554;7.844;2023-03-04T06:17:31;98501.19;;;16.60;57.10
55418;BME280;41287;47.554;7.844;2023-03-04T06:19:56;98500.34;;;16.59;57.18
55418;BME280;41287;47.554;7.844;2023-03-04T06:22:21;98506.59;;;16.60;57.02
55418;BME280;41287;47.554;7.844;2023-03-04T06:24:47;98507.41;;;16.61;57.09
55418;BME280;41287;47.554;7.844;2023-03-04T06:27:12;98514.41;;;16.62;57.13
55418;BME280;41287;47.554;7.844;2023-03-04T06:29:38;98515.22;;;16.62;57.19
55418;BME280;41287;47.554;7.844;2023-03-04T06:32:05;98519.00;;;16.61;57.04
55418;BME280;41287;47.554;7.844;2023-03-04T06:34:31;98519.28;;;16.59;57.31
55418;BME280;41287;47.554;7.844;2023-03-04T06:36:58;98518.22;;;16.61;57.07
55418;BME280;41287;47.554;7.844;2023-03-04T06:39:23;98522.81;;;16.60;57.30
55418;BME280;41287;47.554;7.844;2023-03-04T06:41:48;98527.13;;;16.61;57.02
55418;BME280;41287;47.554;7.844;2023-03-04T06:44:13;98530.94;;;16.60;57.13
55418;BME280;41287;47.554;7.844;2023-03-04T06:46:39;98524.44;;;16.61;57.09
55418;BME280;41287;47.554;7.844;2023-03-04T06:49:04;98532.53;;;16.61;56.85
55418;BME280;41287;47.554;7.844;2023-03-04T06:51:31;98532.53;;;16.61;57.21
55418;BME280;41287;47.554;7.844;2023-03-04T06:53:57;98540.34;;;16.63;57.09
55418;BME280;41287;47.554;7.844;2023-03-04T06:56:22;98536.84;;;16.62;57.16
55418;BME280;41287;47.554;7.844;2023-03-04T06:58:47;98531.44;;;16.62;57.19
55418;BME280;41287;47.554;7.844;2023-03-04T07:03:42;98534.00;;;16.67;57.57
55418;BME280;41287;47.554;7.844;2023-03-04T07:06:13;98533.41;;;16.70;57.83
55418;BME280;41287;47.554;7.844;2023-03-04T07:08:39;98540.59;;;16.75;57.42
55418;BME280;41287;47.554;7.844;2023-03-04T07:11:05;98544.59;;;16.77;57.79
55418;BME280;41287;47.554;7.844;2023-03-04T07:13:30;98553.97;;;16.80;57.77
55418;BME280;41287;47.554;7.844;2023-03-04T07:15:56;98552.56;;;16.82;57.96
55418;BME280;41287;47.554;7.844;2023-03-04T07:18:21;98554.97;;;16.84;58.00
55418;BME280;41287;47.554;7.844;2023-03-04T07:20:46;98553.88;;;16.85;58.47
55418;BME280;41287;47.554;7.844;2023-03-04T07:23:11;98554.34;;;16.87;59.16
55418;BME280;41287;47.554;7.844;2023-03-04T07:25:37;98556.44;;;16.90;60.20
55418;BME280;41287;47.554;7.844;2023-03-04T07:28:03;98558.84;;;16.91;61.31
55418;BME280;41287;47.554;7.844;2023-03-04T07:30:28;98552.78;;;16.94;62.03
55418;BME280;41287;47.554;7.844;2023-03-04T07:32:56;98561.09;;;16.98;61.74
55418;BME280;41287;47.554;7.844;2023-03-04T07:35:21;98558.41;;;16.98;60.85
55418;BME280;41287;47.554;7.844;2023-03-04T07:37:47;98564.91;;;16.97;60.09
55418;BME280;41287;47.554;7.844;2023-03-04T07:40:12;98565.22;;;16.95;59.29
55418;BME280;41287;47.554;7.844;2023-03-04T07:42:38;98561.72;;;16.95;59.04
55418;BME280;41287;47.554;7.844;2023-03-04T07:45:04;98563.63;;;16.94;58.76
55418;BME280;41287;47.554;7.844;2023-03-04T07:47:30;98562.81;;;16.94;58.63
55418;BME280;41287;47.554;7.844;2023-03-04T07:49:56;98567.41;;;16.93;58.31
55418;BME280;41287;47.554;7.844;2023-03-04T07:52:21;98567.91;;;16.95;58.40
55418;BME280;41287;47.554;7.844;2023-03-04T07:54:47;98567.63;;;16.97;59.31
55418;BME280;41287;47.554;7.844;2023-03-04T07:57:12;98568.88;;;16.99;60.50
55418;BME280;41287;47.554;7.844;2023-03-04T07:59:37;98565.88;;;17.01;61.35
55418;BME280;41287;47.554;7.844;2023-03-04T08:02:04;98568.28;;;17.03;62.64
55418;BME280;41287;47.554;7.844;2023-03-04T08:04:31;98574.19;;;17.05;63.66
55418;BME280;41287;47.554;7.844;2023-03-04T08:06:56;98571.94;;;17.07;64.61
55418;BME280;41287;47.554;7.844;2023-03-04T08:09:22;98578.66;;;17.09;65.68
55418;BME280;41287;47.554;7.844;2023-03-04T08:11:47;98579.97;;;17.12;66.97
55418;BME280;41287;47.554;7.844;2023-03-04T08:14:13;98577.41;;;17.15;68.00
55418;BME280;41287;47.554;7.844;2023-03-04T08:16:39;98573.59;;;17.16;68.68
55418;BME280;41287;47.554;7.844;2023-03-04T08:19:04;98577.59;;;17.19;68.35
55418;BME280;41287;47.554;7.844;2023-03-04T08:21:30;98580.31;;;17.19;67.92
55418;BME280;41287;47.554;7.844;2023-03-04T08:23:57;98578.72;;;17.18;67.70
55418;BME280;41287;47.554;7.844;2023-03-04T08:26:38;98579.50;;;17.18;66.93
55418;BME280;41287;47.554;7.844;2023-03-04T08:29:05;98582.22;;;17.18;67.10
55418;BME280;41287;47.554;7.844;2023-03-04T08:31:32;98575.19;;;17.17;66.88
55418;BME280;41287;47.554;7.844;2023-03-04T08:33:57;98573.59;;;17.16;67.68
55418;BME280;41287;47.554;7.844;2023-03-04T08:36:23;98580.63;;;17.17;68.25
55418;BME280;41287;47.554;7.844;2023-03-04T08:38:48;98572.50;;;17.17;68.41
55418;BME280;41287;47.554;7.844;2023-03-04T08:41:13;98579.97;;;17.20;68.74
55418;BME280;41287;47.554;7.844;2023-03-04T08:43:40;98575.69;;;17.19;68.84
55418;BME280;41287;47.554;7.844;2023-03-04T08:46:05;98579.97;;;17.20;69.80
55418;BME280;41287;47.554;7.844;2023-03-04T08:48:31;98578.06;;;17.21;69.64
55418;BME280;41287;47.554;7.844;2023-03-04T08:50:57;98575.38;;;17.21;69.60
55418;BME280;41287;47.554;7.844;2023-03-04T08:53:24;98567.72;;;17.23;69.63
55418;BME280;41287;47.554;7.844;2023-03-04T08:55:51;98573.94;;;17.23;70.13
55418;BME280;41287;47.554;7.844;2023-03-04T08:58:17;98575.56;;;17.24;69.92
55418;BME280;41287;47.554;7.844;2023-03-04T09:00:44;98577.97;;;17.26;70.26
55418;BME280;41287;47.554;7.844;2023-03-04T09:03:12;98591.97;;;17.28;70.58
55418;BME280;41287;47.554;7.844;2023-03-04T09:05:38;98580.03;;;17.29;70.97
55418;BME280;41287;47.554;7.844;2023-03-04T09:08:03;98580.81;;;17.29;71.57
55418;BME280;41287;47.554;7.844;2023-03-04T09:10:28;98574.31;;;17.30;71.75
55418;BME280;41287;47.554;7.844;2023-03-04T09:12:54;98576.69;;;17.32;71.49
55418;BME280;41287;47.554;7.844;2023-03-04T09:15:19;98577.97;;;17.34;71.74
55418;BME280;41287;47.554;7.844;2023-03-04T09:17:46;98581.16;;;17.36;71.96
55418;BME280;41287;47.554;7.844;2023-03-04T09:20:13;98578.91;;;17.30;67.56
55418;BME280;41287;47.554;7.844;2023-03-04T09:22:40;98563.25;;;17.18;56.26
55418;BME280;41287;47.554;7.844;2023-03-04T09:25:06;98566.53;;;17.07;53.49
55418;BME280;41287;47.554;7.844;2023-03-04T09:27:32;98566.50;;;16.98;53.65
55418;BME280;41287;47.554;7.844;2023-03-04T09:29:57;98558.84;;;16.91;52.61
55418;BME280;41287;47.554;7.844;2023-03-04T09:32:23;98554.97;;;16.84;49.70
55418;BME280;41287;47.554;7.844;2023-03-04T09:34:48;98557.47;;;16.80;48.18
55418;BME280;41287;47.554;7.844;2023-03-04T09:37:14;98560.31;;;16.75;48.65
55418;BME280;41287;47.554;7.844;2023-03-04T09:39:39;98552.84;;;16.58;45.76
55418;BME280;41287;47.554;7.844;2023-03-04T09:42:06;98552.56;;;16.38;45.83
55418;BME280;41287;47.554;7.844;2023-03-04T09:44:36;98554.59;;;16.32;49.94
55418;BME280;41287;47.554;7.844;2023-03-04T09:47:08;98557.00;;;16.34;50.75
55418;BME280;41287;47.554;7.844;2023-03-04T09:49:35;98551.41;;;16.30;51.84
55418;BME280;41287;47.554;7.844;2023-03-04T09:52:36;98561.28;;;16.35;51.65
55418;BME280;41287;47.554;7.844;2023-03-04T09:55:30;98560.66;;;16.38;52.24
55418;BME280;41287;47.554;7.844;2023-03-04T10:00:45;98550.03;;;16.41;52.55
55418;BME280;41287;47.554;7.844;2023-03-04T10:05:45;98557.56;;;16.44;53.34
55418;BME280;41287;47.554;7.844;2023-03-04T10:11:15;98544.50;;;16.46;52.94
55418;BME280;41287;47.554;7.844;2023-03-04T10:14:07;98557.72;;;16.48;53.58
55418;BME280;41287;47.554;7.844;2023-03-04T10:16:44;98551.22;;;16.49;54.00
55418;BME280;41287;47.554;7.844;2023-03-04T10:21:42;98540.09;;;16.50;53.91
55418;BME280;41287;47.554;7.844;2023-03-04T10:24:12;98540.91;;;16.51;53.15
55418;BME280;41287;47.554;7.844;2023-03-04T10:26:41;98537.38;;;16.50;53.19
55418;BME280;41287;47.554;7.844;2023-03-04T10:29:16;98535.50;;;16.51;53.22
55418;BME280;41287;47.554;7.844;2023-03-04T10:31:43;98532.44;;;16.52;53.36
55418;BME280;41287;47.554;7.844;2023-03-04T10:34:11;98528.66;;;16.53;53.40
55418;BME280;41287;47.554;7.844;2023-03-04T10:37:02;98532.94;;;16.54;53.80
55418;BME280;41287;47.554;7.844;2023-03-04T10:39:52;98522.00;;;16.59;53.83
55418;BME280;41287;47.554;7.844;2023-03-04T10:44:58;98526.34;;;16.61;54.22
55418;BME280;41287;47.554;7.844;2023-03-04T10:47:27;98520.91;;;16.61;54.20
55418;BME280;41287;47.554;7.844;2023-03-04T10:49:55;98519.81;;;16.62;53.92
55418;BME280;41287;47.554;7.844;2023-03-04T10:52:34;98520.91;;;16.61;53.82
55418;BME280;41287;47.554;7.844;2023-03-04T10:57:51;98521.13;;;16.64;53.82
55418;BME280;41287;47.554;7.844;2023-03-04T11:03:23;98511.69;;;16.62;53.51
55418;BME280;41287;47.554;7.844;2023-03-04T11:05:50;98515.38;;;16.66;53.72
55418;BME280;41287;47.554;7.844;2023-03-04T11:08:21;98500.44;;;16.68;53.88
55418;BME280;41287;47.554;7.844;2023-03-04T11:10:47;98504.91;;;16.73;53.93
55418;BME280;41287;47.554;7.844;2023-03-04T11:13:25;98503.00;;;16.73;53.87
55418;BME280;41287;47.554;7.844;2023-03-04T11:15:54;98502.19;;;16.73;53.91
55418;BME280;41287;47.554;7.844;2023-03-04T11:18:27;98504.91;;;16.73;53.81
55418;BME280;41287;47.554;7.844;2023-03-04T11:20:55;98508.75;;;16.72;53.75
55418;BME280;41287;47.554;7.844;2023-03-04T11:26:00;98499.34;;;16.69;53.76
55418;BME280;41287;47.554;7.844;2023-03-04T11:28:53;98503.16;;;16.68;53.68
55418;BME280;41287;47.554;7.844;2023-03-04T11:31:24;98493.91;;;16.69;53.81
55418;BME280;41287;47.554;7.844;2023-03-04T11:34:07;98491.53;;;16.68;53.70
55418;BME280;41287;47.554;7.844;2023-03-04T11:36:44;98489.63;;;16.68;53.41
55418;BME280;41287;47.554;7.844;2023-03-04T11:39:29;98479.59;;;16.69;53.76
55418;BME280;41287;47.554;7.844;2023-03-04T11:42:20;98483.41;;;16.68;53.66
55418;BME280;41287;47.554;7.844;2023-03-04T11:44:47;98475.78;;;16.70;53.61
55418;BME280;41287;47.554;7.844;2023-03-04T11:47:40;98474.19;;;16.69;53.67
55418;BME280;41287;47.554;7.844;2023-03-04T11:50:22;98481.50;;;16.68;53.68
55418;BME280;41287;47.554;7.844;2023-03-04T11:53:22;98461.75;;;16.68;53.67
55418;BME280;41287;47.554;7.844;2023-03-04T12:01:09;98461.16;;;16.71;53.56
55418;BME280;41287;47.554;7.844;2023-03-04T12:09:34;98449.03;;;16.68;53.79
55418;BME280;41287;47.554;7.844;2023-03-04T12:12:21;98445.03;;;16.66;53.84
55418;BME280;41287;47.554;7.844;2023-03-04T12:20:39;98442.66;;;16.64;53.85
55418;BME280;41287;47.554;7.844;2023-03-04T12:23:25;98435.66;;;16.63;53.91
55418;BME280;41287;47.554;7.844;2023-03-04T12:26:01;98437.25;;;16.64;53.90
55418;BME280;41287;47.554;7.844;2023-03-04T12:28:44;98433.75;;;16.64;54.02
55418;BME280;41287;47.554;7.844;2023-03-04T12:34:25;98416.88;;;16.67;54.19
55418;BME280;41287;47.554;7.844;2023-03-04T12:42:33;98408.63;;;16.72;54.60
55418;BME280;41287;47.554;7.844;2023-03-04T12:45:24;98402.72;;;16.70;54.46
55418;BME280;41287;47.554;7.844;2023-03-04T12:48:31;98390.47;;;16.72;54.25
55418;BME280;41287;47.554;7.844;2023-03-04T12:54:27;98385.84;;;16.73;54.45
55418;BME280;41287;47.554;7.844;2023-03-04T12:57:02;98388.56;;;16.73;54.53
55418;BME280;41287;47.554;7.844;2023-03-04T12:59:36;98384.28;;;16.72;54.15
55418;BME280;41287;47.554;7.844;2023-03-04T13:02:20;98385.38;;;16.71;54.02
55418;BME280;41287;47.554;7.844;2023-03-04T13:07:42;98368.03;;;16.72;54.25
55418;BME280;41287;47.554;7.844;2023-03-04T13:10:16;98378.88;;;16.72;54.30
55418;BME280;41287;47.554;7.844;2023-03-04T13:12:55;98367.25;;;16.71;54.26
55418;BME280;41287;47.554;7.844;2023-03-04T13:17:48;98361.03;;;16.71;54.25
55418;BME280;41287;47.554;7.844;2023-03-04T13:20:24;98361.34;;;16.69;54.18
55418;BME280;41287;47.554;7.844;2023-03-04T13:23:00;98366.44;;;16.71;54.10
55418;BME280;41287;47.554;7.844;2023-03-04T13:36:31;98348.31;;;16.71;54.70
55418;BME280;41287;47.554;7.844;2023-03-04T13:39:03;98345.59;;;16.71;54.58
55418;BME280;41287;47.554;7.844;2023-03-04T13:41:31;98348.31;;;16.71;54.64
55418;BME280;41287;47.554;7.844;2023-03-04T13:44:54;98341.91;;;16.67;54.43
55418;BME280;41287;47.554;7.844;2023-03-04T13:47:29;98335.09;;;16.70;54.54
55418;BME280;41287;47.554;7.844;2023-03-04T13:50:33;98326.16;;;16.69;54.71
55418;BME280;41287;47.554;7.844;2023-03-04T13:53:30;98335.69;;;16.67;54.81
55418;BME280;41287;47.554;7.844;2023-03-04T13:58:30;98335.69;;;16.67;54.72
55418;BME280;41287;47.554;7.844;2023-03-04T14:00:56;98334.09;;;16.66;54.62
55418;BME280;41287;47.554;7.844;2023-03-04T14:03:27;98336.34;;;16.64;54.64
55418;BME280;41287;47.554;7.844;2023-03-04T14:08:38;98329.03;;;16.64;54.69
55418;BME280;41287;47.554;7.844;2023-03-04T14:11:04;98326.47;;;16.68;55.05
55418;BME280;41287;47.554;7.844;2023-03-04T14:13:31;98321.72;;;16.73;55.36
55418;BME280;41287;47.554;7.844;2023-03-04T14:15:58;98329.34;;;16.80;55.24
55418;BME280;41287;47.554;7.844;2023-03-04T14:18:24;98320.63;;;16.83;55.45
55418;BME280;41287;47.554;7.844;2023-03-04T14:20:50;98324.44;;;16.82;55.44
55418;BME280;41287;47.554;7.844;2023-03-04T14:23:31;98321.59;;;16.78;55.32
55418;BME280;41287;47.554;7.844;2023-03-04T14:26:12;98310.56;;;16.75;55.15
55418;BME280;41287;47.554;7.844;2023-03-04T14:28:43;98308.97;;;16.74;55.45